Time;durP1;ratioP1;P1;durP2;ratioP2;P2;SDS_P1;SDS_P2;PMS_P1;PMS_P2;Temp;Humidity;BMP_temperature;BMP_pressure;BME280_temperature;BME280_humidity;BME280_pressure;Samples;Min_cycle;Max_cycle;Signal;HPM_P1;HPM_P2
2021/05/08 00:02:17;;;;;;;8.20;3.45;;;;;;;6.34;55.49;98689.64;125534;1098;103018;-73
2021/05/08 00:04:46;;;;;;;7.43;3.47;;;;;;;6.35;55.61;98690.48;125614;1104;103086;-73
2021/05/08 00:07:13;;;;;;;7.67;3.40;;;;;;;6.34;55.52;98694.06;125710;1099;103083;-72
2021/05/08 00:09:40;;;;;;;7.57;3.70;;;;;;;6.34;55.31;98710.77;125645;1104;103121;-72
2021/05/08 00:12:10;;;;;;;7.13;3.80;;;;;;;6.36;55.58;98703.61;125543;1104;102990;-73
2021/05/08 00:14:38;;;;;;;6.27;3.23;;;;;;;6.34;55.72;98704.63;125599;1100;102990;-74
2021/05/08 00:17:06;;;;;;;6.57;3.33;;;;;;;6.34;56.10;98708.13;125513;1104;102985;-73
2021/05/08 00:19:35;;;;;;;8.37;3.57;;;;;;;6.34;55.79;98712.55;125810;1100;103079;-72
2021/05/08 00:22:02;;;;;;;7.97;3.47;;;;;;;6.36;55.66;98718.59;125542;1104;103087;-73
2021/05/08 00:24:31;;;;;;;6.13;3.27;;;;;;;6.35;55.80;98732.74;125525;1104;103164;-72
2021/05/08 00:26:58;;;;;;;6.53;3.23;;;;;;;6.35;55.76;98728.33;125575;1104;103152;-73
2021/05/08 00:29:26;;;;;;;6.50;3.77;;;;;;;6.35;55.70;98733.61;125573;1104;103019;-72
2021/05/08 00:31:53;;;;;;;8.57;3.27;;;;;;;6.35;55.91;98732.74;125570;1104;103096;-73
2021/05/08 00:34:21;;;;;;;10.63;3.47;;;;;;;6.35;55.59;98738.02;125549;1104;103157;-73
2021/05/08 00:36:48;;;;;;;7.47;3.20;;;;;;;6.33;55.84;98743.41;125524;1104;103072;-74
2021/05/08 00:39:16;;;;;;;6.05;2.90;;;;;;;6.33;55.77;98758.40;125467;1104;102994;-72
2021/05/08 00:41:43;;;;;;;4.80;2.93;;;;;;;6.26;55.89;98752.65;125468;1104;102995;-70
2021/05/08 00:44:11;;;;;;;4.27;2.63;;;;;;;6.22;55.70;98749.35;125481;1104;103052;-71
2021/05/08 00:46:42;;;;;;;6.40;2.97;;;;;;;6.19;56.08;98775.95;125461;1104;103141;-72
2021/05/08 00:49:10;;;;;;;5.47;2.47;;;;;;;6.17;55.76;98774.31;125469;1104;103014;-72
2021/05/08 00:51:37;;;;;;;3.37;2.33;;;;;;;6.14;55.91;98770.08;125563;1104;103019;-72
2021/05/08 00:54:05;;;;;;;3.50;2.47;;;;;;;6.11;55.89;98772.91;125504;1104;103084;-72
2021/05/08 00:56:32;;;;;;;3.97;2.90;;;;;;;6.08;56.19;98781.87;125584;1104;102991;-71
2021/05/08 00:59:01;;;;;;;6.43;2.80;;;;;;;6.03;55.94;98773.36;125558;1104;103100;-72
2021/05/08 01:01:28;;;;;;;4.97;3.00;;;;;;;6.01;56.06;98785.80;125514;1100;103092;-72
2021/05/08 01:03:56;;;;;;;4.33;3.00;;;;;;;6.00;55.80;98789.38;125542;1104;103085;-73
2021/05/08 01:06:24;;;;;;;8.67;3.27;;;;;;;5.99;56.30;98798.21;125527;1104;103454;-71
2021/05/08 01:08:51;;;;;;;6.30;3.53;;;;;;;5.95;56.06;98794.05;125574;1100;103019;-74
2021/05/08 01:11:19;;;;;;;8.47;3.60;;;;;;;5.93;56.02;98801.20;125562;1104;103639;-73
2021/05/08 01:13:47;;;;;;;6.60;3.40;;;;;;;5.88;55.93;98817.31;125531;1104;103013;-72
2021/05/08 01:16:14;;;;;;;9.17;4.37;;;;;;;5.90;56.24;98820.72;125563;1104;103087;-72
2021/05/08 01:18:42;;;;;;;4.65;3.75;;;;;;;5.87;56.05;98809.47;125574;1104;103086;-74
2021/05/08 01:21:17;;;;;;;6.83;3.97;;;;;;;5.86;56.29;98820.97;125626;1104;103089;-72
2021/05/08 01:23:44;;;;;;;8.45;4.00;;;;;;;5.87;56.04;98825.31;125596;1104;103520;-72
2021/05/08 01:26:12;;;;;;;8.23;4.00;;;;;;;5.83;56.16;98826.42;125817;1104;103018;-72
2021/05/08 01:28:40;;;;;;;6.13;4.00;;;;;;;5.80;56.04;98836.22;125515;1104;102989;-74
2021/05/08 01:31:10;;;;;;;9.73;4.60;;;;;;;5.78;56.27;98835.45;125569;1105;103095;-72
2021/05/08 01:33:40;;;;;;;8.53;4.30;;;;;;;5.79;56.49;98834.51;125545;1104;103068;-70
2021/05/08 01:36:08;;;;;;;9.00;4.50;;;;;;;5.81;56.09;98843.19;125596;1104;103081;-75
2021/05/08 01:38:36;;;;;;;7.90;4.37;;;;;;;5.80;56.36;98844.13;125507;1104;103169;-73
2021/05/08 01:41:07;;;;;;;10.07;4.20;;;;;;;5.79;56.39;98849.51;125555;1104;102991;-73
2021/05/08 01:43:36;;;;;;;10.97;4.43;;;;;;;5.79;56.41;98852.98;125520;1104;103085;-72
2021/05/08 01:46:04;;;;;;;11.67;4.67;;;;;;;5.79;56.54;98846.88;125555;1104;103014;-72
2021/05/08 01:48:33;;;;;;;11.53;4.40;;;;;;;5.78;56.34;98846.00;125465;1104;103153;-73
2021/05/08 01:51:01;;;;;;;9.93;5.03;;;;;;;5.78;56.55;98856.56;125478;1104;103005;-72
2021/05/08 01:53:28;;;;;;;10.23;4.40;;;;;;;5.79;56.45;98846.88;125551;1104;102993;-73
2021/05/08 01:55:56;;;;;;;15.63;5.63;;;;;;;5.80;56.67;98856.49;125537;1104;103422;-73
2021/05/08 01:58:23;;;;;;;11.80;4.88;;;;;;;5.77;56.47;98856.66;125538;1100;102981;-73
2021/05/08 02:00:51;;;;;;;13.08;5.03;;;;;;;5.76;56.59;98866.36;125531;1104;103007;-73
2021/05/08 02:03:20;;;;;;;12.13;5.13;;;;;;;5.75;56.59;98866.45;125484;1104;103106;-74
2021/05/08 02:05:49;;;;;;;10.87;4.83;;;;;;;5.71;56.68;98864.92;125541;1104;103065;-75
2021/05/08 02:08:16;;;;;;;12.63;4.73;;;;;;;5.69;56.47;98867.66;125547;1104;102993;-72
2021/05/08 02:10:45;;;;;;;10.63;4.60;;;;;;;5.66;56.73;98881.86;125575;1100;101964;-71
2021/05/08 02:13:15;;;;;;;9.77;4.30;;;;;;;5.66;56.76;98873.11;125545;1104;103155;-72
2021/05/08 02:15:44;;;;;;;11.30;4.83;;;;;;;5.63;56.78;98875.91;125538;1104;103053;-72
2021/05/08 02:18:12;;;;;;;7.73;3.67;;;;;;;5.62;56.94;98875.05;125525;1104;102990;-76
2021/05/08 02:20:44;;;;;;;9.43;4.00;;;;;;;5.60;56.87;98878.72;125510;1100;103126;-74
2021/05/08 02:23:15;;;;;;;9.10;4.40;;;;;;;5.59;56.75;98880.48;125558;1104;102993;-74
2021/05/08 02:25:42;;;;;;;7.93;4.20;;;;;;;5.60;57.02;98881.36;125564;1104;103164;-73
2021/05/08 02:28:11;;;;;;;7.90;4.27;;;;;;;5.60;57.11;98881.36;125448;1104;103549;-72
2021/05/08 02:30:41;;;;;;;9.87;4.83;;;;;;;5.57;56.92;98884.16;125535;1100;103054;-73
2021/05/08 02:33:10;;;;;;;10.93;4.53;;;;;;;5.54;57.10;98885.16;125401;1105;103058;-73
2021/05/08 02:35:38;;;;;;;10.53;4.10;;;;;;;5.55;57.16;98880.75;125602;1104;103110;-72
2021/05/08 02:38:06;;;;;;;10.23;4.33;;;;;;;5.56;57.00;98885.09;125606;1104;103037;-73
2021/05/08 02:40:38;;;;;;;10.80;4.87;;;;;;;5.56;57.20;98885.94;125501;1104;103049;-72
2021/05/08 02:43:09;;;;;;;11.20;4.53;;;;;;;5.56;57.33;98893.02;125511;1104;103126;-73
2021/05/08 02:45:37;;;;;;;10.47;4.77;;;;;;;5.55;56.91;98888.67;125524;1104;103023;-72
2021/05/08 02:48:05;;;;;;;10.93;4.43;;;;;;;5.54;57.05;98887.80;125534;1104;103120;-75
2021/05/08 02:50:32;;;;;;;10.90;4.50;;;;;;;5.55;57.17;98891.31;125555;1104;103127;-73
2021/05/08 02:52:59;;;;;;;6.90;3.77;;;;;;;5.54;57.17;98892.25;125521;1104;103024;-72
2021/05/08 02:55:27;;;;;;;7.97;3.93;;;;;;;5.53;57.33;98890.54;125553;1098;102990;-72
2021/05/08 02:58:01;;;;;;;8.37;4.00;;;;;;;5.53;57.24;98890.54;125535;1100;102987;-73
2021/05/08 03:00:28;;;;;;;7.07;3.63;;;;;;;5.52;57.18;98887.03;125592;1100;103000;-73
2021/05/08 03:02:56;;;;;;;6.60;3.60;;;;;;;5.49;57.48;98895.98;125546;1104;103174;-73
2021/05/08 03:05:23;;;;;;;6.80;3.50;;;;;;;5.48;57.40;98894.28;125557;1099;103013;-72
2021/05/08 03:07:50;;;;;;;7.60;3.57;;;;;;;5.47;57.41;98897.85;125533;1100;103019;-72
2021/05/08 03:10:17;;;;;;;8.93;4.40;;;;;;;5.46;57.21;98906.70;125543;1104;103118;-73
2021/05/08 03:12:45;;;;;;;10.17;3.37;;;;;;;5.45;57.29;98902.36;125578;1100;103086;-72
2021/05/08 03:15:12;;;;;;;9.43;4.00;;;;;;;5.45;57.39;98905.00;125583;1104;103218;-72
2021/05/08 03:17:40;;;;;;;7.38;3.35;;;;;;;5.46;57.37;98911.98;125509;1104;103112;-73
2021/05/08 03:20:09;;;;;;;10.67;4.13;;;;;;;5.45;57.34;98912.91;125516;1104;102990;-73
2021/05/08 03:22:37;;;;;;;14.10;4.67;;;;;;;5.45;57.55;98914.71;125545;1104;103460;-75
2021/05/08 03:25:04;;;;;;;11.37;4.40;;;;;;;5.46;57.43;98926.97;125538;1104;103119;-73
2021/05/08 03:27:32;;;;;;;11.77;4.73;;;;;;;5.47;57.29;98924.23;125517;1104;103203;-71
2021/05/08 03:29:59;;;;;;;11.77;4.97;;;;;;;5.47;57.68;98926.88;125502;1104;103065;-73
2021/05/08 03:32:26;;;;;;;9.33;3.63;;;;;;;5.49;57.47;98927.64;125540;1104;103065;-72
2021/05/08 03:34:56;;;;;;;8.00;4.33;;;;;;;5.53;57.65;98940.67;125527;1098;103079;-71
2021/05/08 03:37:23;;;;;;;7.07;4.17;;;;;;;5.58;57.69;98938.64;125517;1104;102993;-71
2021/05/08 03:39:51;;;;;;;12.65;4.90;;;;;;;5.62;57.62;98940.18;125528;1104;103140;-71
2021/05/08 03:42:19;;;;;;;12.13;4.87;;;;;;;5.64;57.68;98954.14;125485;1104;103111;-72
2021/05/08 03:44:46;;;;;;;13.70;5.00;;;;;;;5.66;58.07;98952.27;125562;1099;103120;-72
2021/05/08 03:47:14;;;;;;;12.80;5.03;;;;;;;5.69;57.80;98959.16;125625;1099;103113;-71
2021/05/08 03:49:41;;;;;;;12.20;5.30;;;;;;;5.69;57.83;98964.44;125656;1104;102991;-71
2021/05/08 03:52:08;;;;;;;16.83;6.40;;;;;;;5.68;57.64;98968.02;125672;1098;103144;-74
2021/05/08 03:54:37;;;;;;;15.70;5.95;;;;;;;5.66;57.84;98973.38;125561;1098;103086;-75
2021/05/08 03:57:05;;;;;;;14.70;5.83;;;;;;;5.66;57.60;98962.83;125524;1100;103088;-73
2021/05/08 03:59:33;;;;;;;14.70;5.83;;;;;;;5.61;57.44;98960.42;125505;1100;102964;-72
2021/05/08 04:02:00;;;;;;;12.13;5.07;;;;;;;5.61;57.80;98981.53;125443;1104;103086;-73
2021/05/08 04:04:28;;;;;;;15.10;5.77;;;;;;;5.58;57.68;98981.69;125526;1100;104542;-73
2021/05/08 04:06:56;;;;;;;12.30;4.60;;;;;;;5.58;57.74;98984.33;125455;1100;103570;-74
2021/05/08 04:09:23;;;;;;;12.57;5.27;;;;;;;5.57;57.93;98995.82;125438;1104;102990;-74
2021/05/08 04:11:51;;;;;;;13.17;6.00;;;;;;;5.59;57.41;98999.23;125468;1104;102991;-72
2021/05/08 04:14:18;;;;;;;13.07;5.47;;;;;;;5.57;57.78;98992.34;125504;1104;102990;-74
2021/05/08 04:16:46;;;;;;;12.93;5.23;;;;;;;5.56;57.86;99009.94;125499;1104;102991;-76
2021/05/08 04:19:14;;;;;;;12.67;5.30;;;;;;;5.54;57.81;99001.25;125492;1104;102993;-73
2021/05/08 04:21:41;;;;;;;16.80;6.07;;;;;;;5.49;57.86;99012.06;125530;1104;102987;-73
2021/05/08 04:24:09;;;;;;;16.63;6.30;;;;;;;5.48;57.86;99015.64;125502;1100;103014;-71
2021/05/08 04:26:36;;;;;;;14.25;5.50;;;;;;;5.49;58.13;99008.59;125562;1105;103017;-71
2021/05/08 04:29:04;;;;;;;15.93;6.40;;;;;;;5.52;58.19;99021.59;125542;1100;103020;-71
2021/05/08 04:31:33;;;;;;;13.90;5.40;;;;;;;5.49;58.21;99024.42;125401;1104;103085;-72
2021/05/08 04:34:02;;;;;;;13.37;5.87;;;;;;;5.42;58.18;99028.30;125545;1104;103466;-72
2021/05/08 04:36:29;;;;;;;15.90;6.45;;;;;;;5.40;58.08;99027.53;125562;1104;103108;-70
2021/05/08 04:38:56;;;;;;;15.80;6.40;;;;;;;5.38;57.87;99042.58;125530;1104;103020;-70
2021/05/08 04:41:24;;;;;;;18.47;7.10;;;;;;;5.39;58.34;99041.66;125563;1104;103052;-72
2021/05/08 04:43:52;;;;;;;18.10;8.57;;;;;;;5.38;58.25;99040.78;125492;1104;102997;-72
2021/05/08 04:46:19;;;;;;;18.10;7.50;;;;;;;5.39;58.15;99047.77;125550;1100;102998;-70
2021/05/08 04:48:46;;;;;;;17.03;7.30;;;;;;;5.40;58.08;99049.47;125548;1104;102985;-70
2021/05/08 04:51:13;;;;;;;17.23;6.93;;;;;;;5.41;58.23;99042.43;125574;1104;103006;-71
2021/05/08 04:53:41;;;;;;;17.98;7.68;;;;;;;5.40;58.54;99051.27;125552;1103;103112;-70
2021/05/08 04:56:08;;;;;;;18.30;7.97;;;;;;;5.39;58.58;99062.76;125457;1100;103080;-72
2021/05/08 04:58:35;;;;;;;19.67;7.70;;;;;;;5.38;58.61;99067.16;125550;1104;103014;-70
2021/05/08 05:01:02;;;;;;;17.20;7.13;;;;;;;5.38;58.61;99068.96;125585;1104;102993;-71
2021/05/08 05:03:30;;;;;;;17.27;7.10;;;;;;;5.34;58.39;99068.25;125596;1104;103023;-71
2021/05/08 05:05:57;;;;;;;19.85;8.03;;;;;;;5.32;58.49;99070.11;125626;1100;103123;-70
2021/05/08 05:08:25;;;;;;;19.83;8.07;;;;;;;5.32;58.27;99070.11;125537;1104;103094;-70
2021/05/08 05:10:54;;;;;;;15.33;6.63;;;;;;;5.33;58.55;99079.73;125537;1104;103344;-71
2021/05/08 05:13:23;;;;;;;18.27;8.13;;;;;;;5.30;58.78;99077.28;125509;1100;102990;-70
2021/05/08 05:15:53;;;;;;;18.67;8.37;;;;;;;5.27;58.73;99090.62;125559;1100;103114;-72
2021/05/08 05:18:21;;;;;;;16.07;6.90;;;;;;;5.26;58.55;99088.91;125552;1100;103203;-70
2021/05/08 05:20:48;;;;;;;14.53;6.93;;;;;;;5.27;58.50;99099.37;125544;1104;103091;-70
2021/05/08 05:23:15;;;;;;;15.37;6.33;;;;;;;5.28;58.45;99100.23;125452;1100;103013;-70
2021/05/08 05:25:43;;;;;;;13.63;6.07;;;;;;;5.26;58.67;99104.73;125388;1104;103088;-71
2021/05/08 05:28:24;;;;;;;14.13;5.87;;;;;;;5.28;58.74;99105.52;125384;1104;102993;-70
2021/05/08 05:30:53;;;;;;;14.33;6.63;;;;;;;5.31;59.06;99118.52;125411;1104;103123;-70
2021/05/08 05:33:21;;;;;;;12.93;6.07;;;;;;;5.32;58.83;99120.22;125573;1104;103128;-70
2021/05/08 05:35:51;;;;;;;16.23;6.27;;;;;;;5.34;58.95;99121.00;125552;1104;103091;-70
2021/05/08 05:38:18;;;;;;;15.40;6.53;;;;;;;5.32;58.93;99134.28;125551;1104;103013;-70
2021/05/08 05:40:45;;;;;;;13.43;6.60;;;;;;;5.34;58.86;99137.70;125513;1100;103176;-72
2021/05/08 05:43:13;;;;;;;12.83;6.20;;;;;;;5.35;59.06;99147.32;125551;1104;103145;-74
2021/05/08 05:45:40;;;;;;;13.83;6.47;;;;;;;5.36;59.09;99145.52;125491;1104;103066;-71
2021/05/08 05:48:08;;;;;;;10.27;5.40;;;;;;;5.36;58.66;99143.75;125593;1104;102989;-71
2021/05/08 05:50:38;;;;;;;12.55;6.15;;;;;;;5.34;58.63;99144.73;125523;1104;103091;-71
2021/05/08 05:53:06;;;;;;;14.23;6.17;;;;;;;5.35;59.19;99147.32;125546;1104;103145;-70
2021/05/08 05:55:34;;;;;;;14.85;5.80;;;;;;;5.40;58.92;99152.35;125554;1098;103120;-72
2021/05/08 05:58:02;;;;;;;15.60;5.87;;;;;;;5.39;59.21;99158.56;125491;1100;103495;-71
2021/05/08 06:00:29;;;;;;;11.80;5.60;;;;;;;5.39;58.84;99158.56;125494;1104;102991;-73
2021/05/08 06:02:57;;;;;;;10.60;4.73;;;;;;;5.41;59.25;99166.41;125524;1104;103186;-74
2021/05/08 06:05:25;;;;;;;14.50;5.30;;;;;;;5.44;59.17;99166.27;125573;1104;103091;-73
2021/05/08 06:07:53;;;;;;;15.47;5.33;;;;;;;5.48;59.34;99170.45;125563;1099;103125;-75
2021/05/08 06:10:20;;;;;;;8.73;4.20;;;;;;;5.53;59.03;99171.05;125484;1098;103021;-72
2021/05/08 06:12:47;;;;;;;11.67;4.80;;;;;;;5.57;59.07;99174.41;125590;1104;103017;-73
2021/05/08 06:15:15;;;;;;;12.00;4.67;;;;;;;5.58;59.05;99176.95;125614;1100;103016;-73
2021/05/08 06:17:42;;;;;;;10.77;5.03;;;;;;;5.60;59.11;99184.81;125590;1104;103022;-71
2021/05/08 06:20:10;;;;;;;8.50;4.13;;;;;;;5.60;59.47;99183.02;125649;1104;103152;-71
2021/05/08 06:22:37;;;;;;;12.23;5.33;;;;;;;5.61;59.25;99192.64;125537;1104;102991;-72
2021/05/08 06:25:05;;;;;;;9.95;5.10;;;;;;;5.63;59.12;99189.94;125534;1104;102997;-73
2021/05/08 06:27:39;;;;;;;12.07;5.90;;;;;;;5.64;59.18;99186.37;125551;1105;103014;-71
2021/05/08 06:30:08;;;;;;;13.33;5.40;;;;;;;5.66;59.15;99187.98;125540;1104;103543;-73
2021/05/08 06:32:35;;;;;;;12.57;5.37;;;;;;;5.66;59.20;99192.42;125611;1098;103151;-71
2021/05/08 06:35:03;;;;;;;13.97;5.50;;;;;;;5.67;59.21;99191.49;125444;1098;103014;-73
2021/05/08 06:37:30;;;;;;;15.83;5.67;;;;;;;5.70;59.34;99198.39;125508;1104;102991;-71
2021/05/08 06:39:58;;;;;;;11.80;5.20;;;;;;;5.73;59.17;99191.16;125480;1104;103087;-73
2021/05/08 06:42:26;;;;;;;11.83;5.30;;;;;;;5.78;59.10;99190.94;125381;1104;103048;-72
2021/05/08 06:44:53;;;;;;;11.77;4.73;;;;;;;5.83;59.43;99202.13;125561;1104;103112;-72
2021/05/08 06:47:21;;;;;;;10.90;5.03;;;;;;;5.89;59.07;99200.94;125537;1104;103082;-71
2021/05/08 06:49:50;;;;;;;17.10;7.73;;;;;;;5.96;59.39;99195.26;125574;1104;103113;-72
2021/05/08 06:52:17;;;;;;;18.75;6.65;;;;;;;6.04;59.37;99201.97;125524;1104;103115;-73
2021/05/08 06:54:45;;;;;;;13.10;5.47;;;;;;;6.09;59.42;99199.94;125525;1099;102988;-72
2021/05/08 06:57:12;;;;;;;14.33;5.37;;;;;;;6.17;59.34;99196.89;125518;1104;103158;-71
2021/05/08 06:59:39;;;;;;;12.90;5.60;;;;;;;6.24;59.45;99191.23;125513;1104;102993;-72
2021/05/08 07:02:06;;;;;;;12.00;5.03;;;;;;;6.28;59.37;99197.19;125517;1104;103083;-74
2021/05/08 07:04:34;;;;;;;10.67;5.00;;;;;;;6.35;58.92;99193.29;126467;1099;103169;-72
2021/05/08 07:07:02;;;;;;;7.20;3.93;;;;;;;6.42;59.49;99196.45;125530;1099;103097;-72
2021/05/08 07:09:29;;;;;;;11.83;4.80;;;;;;;6.48;59.94;99188.20;125533;1104;103212;-72
2021/05/08 07:11:57;;;;;;;11.53;5.10;;;;;;;6.57;59.79;99194.77;125521;1104;103085;-75
2021/05/08 07:14:24;;;;;;;7.67;4.17;;;;;;;6.67;59.51;99197.78;125566;1099;103442;-75
2021/05/08 07:16:57;;;;;;;11.65;4.88;;;;;;;7.02;59.35;99188.81;125489;1100;103110;-74
2021/05/08 07:19:25;;;;;;;11.07;4.77;;;;;;;7.54;59.21;99190.30;125545;1100;103126;-74
2021/05/08 07:21:52;;;;;;;8.87;4.60;;;;;;;8.58;58.65;99182.30;125555;1104;103221;-73
2021/05/08 07:24:23;;;;;;;7.90;4.13;;;;;;;9.52;58.85;99182.51;125530;1104;103096;-74
2021/05/08 07:26:50;;;;;;;9.13;4.00;;;;;;;11.21;57.85;99186.77;125525;1104;103133;-73
2021/05/08 07:29:19;;;;;;;8.33;3.60;;;;;;;11.12;58.69;99180.31;125537;1105;103062;-73
2021/05/08 07:31:47;;;;;;;8.00;3.30;;;;;;;10.84;59.29;99186.78;125536;1104;103015;-73
2021/05/08 07:34:14;;;;;;;9.70;3.87;;;;;;;11.23;58.39;99194.66;125553;1104;103081;-74
2021/05/08 07:36:42;;;;;;;9.37;3.90;;;;;;;11.74;57.98;99190.88;125501;1100;103017;-73
2021/05/08 07:39:10;;;;;;;12.17;4.13;;;;;;;11.40;59.02;99186.28;125552;1104;103011;-74
2021/05/08 07:41:37;;;;;;;10.07;4.00;;;;;;;12.54;57.83;99185.70;125492;1104;102987;-72
2021/05/08 07:44:05;;;;;;;11.30;4.20;;;;;;;11.96;58.33;99192.75;125526;1104;103007;-75
2021/05/08 07:46:32;;;;;;;8.10;3.60;;;;;;;11.29;58.58;99192.38;125530;1104;103089;-74
2021/05/08 07:49:00;;;;;;;8.47;3.90;;;;;;;10.89;58.66;99195.29;125518;1104;103086;-75
2021/05/08 07:51:27;;;;;;;6.97;3.03;;;;;;;10.66;58.28;99200.47;125534;1104;103093;-72
2021/05/08 07:53:54;;;;;;;7.13;3.30;;;;;;;10.32;58.56;99194.83;125527;1104;103000;-72
2021/05/08 07:56:22;;;;;;;8.70;3.67;;;;;;;10.17;58.32;99204.72;125560;1104;103030;-72
2021/05/08 07:58:50;;;;;;;8.43;3.23;;;;;;;9.96;58.26;99207.05;125539;1100;103112;-73
2021/05/08 08:01:17;;;;;;;9.67;3.90;;;;;;;9.77;58.22;99199.47;125501;1104;102988;-73
2021/05/08 08:03:45;;;;;;;9.10;3.53;;;;;;;9.70;57.93;99206.98;125540;1100;103059;-74
2021/05/08 08:06:13;;;;;;;7.70;3.10;;;;;;;9.46;57.71;99206.80;125533;1104;103534;-72
2021/05/08 08:08:40;;;;;;;7.60;2.80;;;;;;;9.30;57.66;99212.27;125545;1104;103027;-72
2021/05/08 08:11:08;;;;;;;5.57;2.53;;;;;;;9.27;57.87;99212.47;125558;1104;103112;-73
2021/05/08 08:13:35;;;;;;;7.97;3.17;;;;;;;10.15;56.65;99201.32;125444;1104;103046;-81
2021/05/08 08:16:03;;;;;;;6.40;2.53;;;;;;;11.26;56.59;99205.08;125524;1104;103623;-72
2021/05/08 08:18:30;;;;;;;5.80;2.67;;;;;;;12.85;56.26;99200.13;125480;1099;103006;-81
2021/05/08 08:20:58;;;;;;;4.63;2.03;;;;;;;14.00;56.80;99196.11;125530;1104;103091;-74
2021/05/08 08:23:25;;;;;;;10.83;2.90;;;;;;;15.03;56.80;99199.72;125476;1104;103170;-75
2021/05/08 08:25:53;;;;;;;5.33;2.73;;;;;;;14.48;56.87;99192.00;125545;1100;103071;-75
2021/05/08 08:28:20;;;;;;;9.93;4.03;;;;;;;13.77;57.08;99217.63;125471;1104;103083;-77
2021/05/08 08:30:47;;;;;;;8.10;3.20;;;;;;;13.27;56.74;99218.11;125525;1104;103089;-76
2021/05/08 08:33:15;;;;;;;11.57;4.50;;;;;;;13.27;56.75;99219.95;125517;1104;102998;-75
2021/05/08 08:35:43;;;;;;;7.80;2.93;;;;;;;13.08;56.22;99202.74;125548;1100;103123;-76
2021/05/08 08:38:10;;;;;;;4.00;2.03;;;;;;;12.66;56.43;99211.42;125521;1100;103451;-78
2021/05/08 08:40:39;;;;;;;6.10;2.30;;;;;;;12.28;56.30;99216.11;125517;1100;103062;-75
2021/05/08 08:43:07;;;;;;;6.10;2.60;;;;;;;12.05;56.02;99221.41;125451;1104;103091;-85
2021/05/08 08:45:34;;;;;;;5.23;2.03;;;;;;;13.03;55.15;99203.13;125738;1104;103062;-81
2021/05/08 08:48:02;;;;;;;7.87;3.20;;;;;;;13.22;55.44;99206.98;125553;1104;103169;-76
2021/05/08 08:50:32;;;;;;;5.67;2.47;;;;;;;13.34;54.93;99213.14;125529;1104;103189;-75
2021/05/08 08:53:00;;;;;;;6.47;2.83;;;;;;;14.27;55.07;99202.73;125450;1099;103093;-76
2021/05/08 08:55:28;;;;;;;9.73;2.80;;;;;;;15.08;54.95;99209.18;125101;1104;102987;-77
2021/05/08 08:57:56;;;;;;;5.27;2.00;;;;;;;15.30;54.69;99210.74;125485;1098;103027;-76
2021/05/08 09:00:24;;;;;;;5.37;2.10;;;;;;;14.91;54.91;99208.84;125553;1104;103092;-74
2021/05/08 09:02:52;;;;;;;5.07;2.10;;;;;;;14.35;54.55;99210.13;125528;1104;103115;-73
2021/05/08 09:05:23;;;;;;;4.57;2.50;;;;;;;13.88;54.53;99219.39;125359;1104;103097;-74
2021/05/08 09:07:52;;;;;;;8.40;2.87;;;;;;;13.46;54.41;99221.99;125522;1099;102994;-74
2021/05/08 09:10:27;;;;;;;9.03;3.10;;;;;;;13.28;54.17;99211.80;125586;1104;103084;-74
2021/05/08 09:12:59;;;;;;;7.00;2.73;;;;;;;13.95;53.89;99204.53;125608;1104;103123;-73
2021/05/08 09:15:38;;;;;;;11.93;4.40;;;;;;;14.61;53.73;99215.89;125557;1104;103062;-73
2021/05/08 09:18:08;;;;;;;8.80;3.33;;;;;;;15.20;53.23;99217.95;125555;1104;103441;-74
2021/05/08 09:20:50;;;;;;;6.93;3.00;;;;;;;15.84;53.34;99227.31;125547;1104;103062;-77
2021/05/08 09:23:22;;;;;;;6.80;3.00;;;;;;;15.83;53.42;99217.58;125580;1098;103041;-73
2021/05/08 09:26:18;;;;;;;8.37;3.57;;;;;;;15.64;53.27;99231.83;125558;1104;103062;-73
2021/05/08 09:28:59;;;;;;;9.50;2.83;;;;;;;15.09;52.67;99234.95;125452;1104;103030;-75
2021/05/08 09:31:26;;;;;;;6.33;2.17;;;;;;;14.33;52.33;99263.75;125411;1099;103068;-74
2021/05/08 09:33:56;;;;;;;5.47;2.27;;;;;;;13.54;52.39;99272.99;125391;1104;103088;-73
2021/05/08 09:36:24;;;;;;;7.53;2.70;;;;;;;12.84;52.09;99275.00;125399;1104;103062;-79
2021/05/08 09:38:51;;;;;;;6.80;2.40;;;;;;;12.20;52.01;99259.38;125371;1104;103084;-77
2021/05/08 09:41:19;;;;;;;8.53;3.00;;;;;;;11.71;52.03;99271.04;125396;1104;103011;-77
2021/05/08 09:43:47;;;;;;;8.40;3.33;;;;;;;11.36;52.24;99259.38;125804;1104;103086;-80
2021/05/08 09:46:30;;;;;;;12.40;4.00;;;;;;;11.11;52.10;99255.81;125404;1098;103086;-76
2021/05/08 09:49:11;;;;;;;15.25;4.20;;;;;;;11.00;52.04;99269.06;125468;1104;102991;-79
2021/05/08 09:51:39;;;;;;;13.23;4.17;;;;;;;10.68;51.58;99253.55;125454;1104;103152;-75
2021/05/08 09:54:09;;;;;;;8.83;3.10;;;;;;;10.61;51.80;99260.25;125388;1104;103158;-77
2021/05/08 09:56:48;;;;;;;8.77;3.07;;;;;;;10.57;51.79;99260.48;125453;1104;103092;-75
2021/05/08 09:59:38;;;;;;;8.00;2.80;;;;;;;10.59;51.59;99260.37;125411;1104;103019;-79
2021/05/08 10:02:05;;;;;;;5.27;2.30;;;;;;;10.78;51.81;99241.30;125439;1104;103126;-78
2021/05/08 10:04:57;;;;;;;7.73;2.67;;;;;;;11.06;52.11;99243.80;125407;1104;103126;-76
2021/05/08 10:07:28;;;;;;;11.13;3.60;;;;;;;11.40;52.09;99249.33;125446;1104;103641;-80
2021/05/08 10:09:59;;;;;;;8.30;2.93;;;;;;;11.57;51.83;99242.77;125456;1104;103094;-79
2021/05/08 10:12:29;;;;;;;8.10;2.60;;;;;;;11.61;51.60;99231.75;125639;1104;103017;-76
2021/05/08 10:14:59;;;;;;;9.90;3.90;;;;;;;11.64;51.76;99243.14;125448;1104;103123;-78
2021/05/08 10:17:28;;;;;;;10.70;3.50;;;;;;;11.80;51.79;99240.21;125512;1104;103013;-76
2021/05/08 10:20:10;;;;;;;8.50;3.00;;;;;;;11.97;51.71;99241.60;125479;1104;103139;-77
2021/05/08 10:22:42;;;;;;;7.03;3.03;;;;;;;12.03;51.52;99231.34;125526;1104;103013;-80
2021/05/08 10:25:11;;;;;;;5.07;2.10;;;;;;;12.13;51.57;99226.14;125606;1104;103016;-79
2021/05/08 10:27:39;;;;;;;7.23;2.77;;;;;;;12.28;51.46;99236.61;125339;1104;102811;-79
2021/05/08 10:30:11;;;;;;;5.83;2.20;;;;;;;12.34;51.35;99222.80;125656;1100;103118;-74
2021/05/08 10:32:41;;;;;;;9.00;2.50;;;;;;;12.49;51.77;99213.58;125451;1104;102991;-79
2021/05/08 10:35:10;;;;;;;5.03;2.43;;;;;;;12.69;51.37;99213.84;125503;1100;103158;-80
2021/05/08 10:37:38;;;;;;;7.90;3.03;;;;;;;12.71;51.40;99227.92;125489;1104;103019;-75
2021/05/08 10:40:10;;;;;;;6.40;2.30;;;;;;;12.64;51.14;99235.54;125560;1104;102997;-77
2021/05/08 10:42:49;;;;;;;7.97;2.70;;;;;;;12.41;50.75;99244.50;125567;1098;103076;-77
2021/05/08 10:45:19;;;;;;;7.93;2.50;;;;;;;12.08;50.76;99227.48;125560;1099;103076;-76
2021/05/08 10:47:53;;;;;;;4.93;2.53;;;;;;;11.95;50.95;99235.53;125565;1104;103012;-77
2021/05/08 10:50:25;;;;;;;7.07;2.90;;;;;;;11.83;50.64;99224.83;125531;1104;103085;-76
2021/05/08 10:52:58;;;;;;;8.93;3.50;;;;;;;11.83;50.67;99227.49;125693;1099;103011;-77
2021/05/08 10:55:28;;;;;;;9.90;3.37;;;;;;;11.79;50.54;99222.52;125601;1104;103149;-76
2021/05/08 10:58:14;;;;;;;6.17;2.53;;;;;;;11.69;50.59;99223.20;125602;1100;103073;-75
2021/05/08 11:00:47;;;;;;;6.87;2.47;;;;;;;11.75;50.78;99238.73;125538;1104;102987;-69
2021/05/08 11:03:16;;;;;;;7.23;2.30;;;;;;;11.75;50.60;99228.08;125539;1104;103020;-78
2021/05/08 11:06:04;;;;;;;7.30;2.40;;;;;;;11.60;50.13;99229.22;125558;1104;103062;-76
2021/05/08 11:08:34;;;;;;;10.33;3.60;;;;;;;11.43;50.03;99227.80;125522;1104;102994;-77
2021/05/08 11:11:24;;;;;;;8.83;3.33;;;;;;;11.38;49.99;99224.63;125517;1100;103092;-76
2021/05/08 11:14:01;;;;;;;5.30;2.40;;;;;;;11.26;50.01;99226.38;125569;1104;103049;-77
2021/05/08 11:16:31;;;;;;;4.20;2.13;;;;;;;11.25;49.71;99225.52;125557;1104;103519;-77
2021/05/08 11:19:00;;;;;;;6.67;2.80;;;;;;;11.26;49.90;99227.22;125546;1104;103014;-77
2021/05/08 11:21:30;;;;;;;5.37;2.40;;;;;;;11.41;49.96;99230.56;125541;1104;103019;-76
2021/05/08 11:24:05;;;;;;;8.17;2.50;;;;;;;11.50;49.87;99231.72;125569;1104;103025;-77
2021/05/08 11:26:42;;;;;;;8.20;2.63;;;;;;;11.56;49.97;99238.39;125598;1104;103161;-78
2021/05/08 11:29:24;;;;;;;7.37;2.83;;;;;;;11.58;49.66;99242.66;125557;1100;103637;-79